createdAt,value
2023-02-07T03:43:39.081Z,-6.85
2023-02-07T03:46:41.870Z,-6.76
2023-02-07T03:49:44.211Z,-6.68
2023-02-07T03:52:46.973Z,-6.92
2023-02-07T03:55:49.169Z,-6.74
2023-02-07T03:58:51.628Z,-6.71
2023-02-07T04:01:53.831Z,-6.62
2023-02-07T04:04:56.278Z,-6.58
2023-02-07T04:07:58.433Z,-6.50
2023-02-07T04:11:03.370Z,-6.43
2023-02-07T04:14:05.537Z,-6.74
2023-02-07T04:17:07.981Z,-7.03
2023-02-07T04:20:10.741Z,-7.22
2023-02-07T04:23:13.788Z,-6.85
2023-02-07T04:26:15.957Z,-6.72
2023-02-07T04:29:18.381Z,-6.68
2023-02-07T04:32:20.569Z,-6.62
2023-02-07T04:35:23.042Z,-6.80
2023-02-07T04:38:25.794Z,-6.66
2023-02-07T04:41:28.355Z,-6.68
2023-02-07T04:44:31.077Z,-6.60
2023-02-07T04:47:33.502Z,-6.83
2023-02-07T04:50:35.676Z,-6.76
2023-02-07T04:53:38.075Z,-7.11
2023-02-07T04:56:40.205Z,-7.32
2023-02-07T04:59:42.703Z,-7.04
2023-02-07T05:02:44.930Z,-6.85
2023-02-07T05:05:47.430Z,-6.63
2023-02-07T05:08:49.529Z,-6.60
2023-02-07T05:11:51.953Z,-6.55
2023-02-07T05:14:54.079Z,-6.50
2023-02-07T05:17:57.108Z,-6.45
2023-02-07T05:20:59.504Z,-6.36
2023-02-07T05:24:01.986Z,-6.37
2023-02-07T05:27:04.509Z,-6.40
2023-02-07T05:30:07.681Z,-6.38
2023-02-07T05:33:11.013Z,-6.45
2023-02-07T05:36:13.409Z,-6.68
2023-02-07T05:39:15.841Z,-6.94
2023-02-07T05:42:18.380Z,-6.66
2023-02-07T05:45:21.512Z,-6.72
2023-02-07T05:48:23.882Z,-6.66
2023-02-07T05:51:26.099Z,-6.72
2023-02-07T05:54:29.903Z,-6.76
2023-02-07T05:57:32.311Z,-6.83
2023-02-07T06:00:34.774Z,-6.73
2023-02-07T06:03:37.260Z,-6.64
2023-02-07T06:06:39.484Z,-6.56
2023-02-07T06:09:41.945Z,-6.41
2023-02-07T06:12:44.261Z,-6.41
2023-02-07T06:15:47.868Z,-6.70
2023-02-07T06:18:50.955Z,-7.00
2023-02-07T06:21:53.444Z,-7.02
2023-02-07T06:24:55.563Z,-6.74
2023-02-07T06:27:58.035Z,-6.50
2023-02-07T06:31:00.342Z,-6.86
2023-02-07T06:34:02.889Z,-6.86
2023-02-07T06:37:05.286Z,-6.63
2023-02-07T06:40:08.304Z,-6.41
2023-02-07T06:43:11.646Z,-6.33
2023-02-07T06:46:14.665Z,-6.07
2023-02-07T06:49:16.861Z,-6.29
2023-02-07T06:52:19.741Z,-6.24
2023-02-07T06:55:21.935Z,-6.32
2023-02-07T06:58:24.557Z,-6.26
2023-02-07T07:01:26.738Z,-5.97
2023-02-07T07:04:29.715Z,-5.78
2023-02-07T07:07:31.883Z,-5.77
2023-02-07T07:10:34.867Z,-5.72
2023-02-07T07:13:37.335Z,-5.46
2023-02-07T07:16:43.169Z,-5.15
2023-02-07T07:19:45.279Z,-5.01
2023-02-07T07:22:48.520Z,-5.09
2023-02-07T07:25:50.820Z,-4.90
2023-02-07T07:28:58.131Z,-4.68
2023-02-07T07:32:00.599Z,-4.73
2023-02-07T07:35:05.051Z,-4.71
2023-02-07T07:38:07.230Z,-4.57
2023-02-07T07:41:09.715Z,-4.62
2023-02-07T07:44:11.913Z,-4.47
2023-02-07T07:47:14.584Z,-4.35
2023-02-07T07:50:17.065Z,-4.04
2023-02-07T07:53:20.220Z,-3.90
2023-02-07T07:56:22.412Z,-3.90
2023-02-07T07:59:25.226Z,-3.85
2023-02-07T08:02:28.109Z,-3.17
2023-02-07T08:05:30.562Z,-2.19
2023-02-07T08:08:33.472Z,-1.98
2023-02-07T08:11:36.000Z,-1.71
2023-02-07T08:14:38.700Z,-1.48
2023-02-07T08:17:41.227Z,-1.34
2023-02-07T08:20:43.495Z,-1.48
2023-02-07T08:23:45.934Z,-1.36
2023-02-07T08:26:48.119Z,-1.33
2023-02-07T08:29:54.415Z,-1.38
2023-02-07T08:32:56.625Z,-0.88
2023-02-07T08:36:00.641Z,-0.49
2023-02-07T08:39:05.190Z,-0.53
2023-02-07T08:42:09.524Z,-0.07
2023-02-07T08:45:14.166Z,0.37
2023-02-07T08:48:16.867Z,-0.06
2023-02-07T08:51:19.335Z,0.61
2023-02-07T08:54:22.185Z,0.13
2023-02-07T08:57:25.780Z,0.32
2023-02-07T09:00:28.513Z,1.28
2023-02-07T09:03:30.707Z,1.16
2023-02-07T09:06:33.265Z,0.83
2023-02-07T09:09:35.728Z,0.58
2023-02-07T09:12:38.288Z,0.92
2023-02-07T09:15:40.448Z,1.18
2023-02-07T09:18:42.973Z,0.38
2023-02-07T09:21:45.245Z,0.44
2023-02-07T09:24:47.751Z,1.40
2023-02-07T09:27:50.596Z,2.44
2023-02-07T09:30:53.582Z,3.22
2023-02-07T09:33:56.184Z,3.69
2023-02-07T09:36:59.007Z,6.16
2023-02-07T09:40:01.261Z,7.58
2023-02-07T09:43:09.019Z,6.11
2023-02-07T09:46:22.697Z,5.09
2023-02-07T09:49:38.528Z,6.44
2023-02-07T09:52:47.444Z,7.92
2023-02-07T09:55:57.840Z,7.78
2023-02-07T09:59:18.555Z,6.99
2023-02-07T10:02:26.259Z,5.20
2023-02-07T10:05:53.845Z,4.92
2023-02-07T10:09:00.093Z,4.40
2023-02-07T10:12:34.628Z,4.31
2023-02-07T10:15:50.403Z,4.00
2023-02-07T10:19:01.111Z,3.47
2023-02-07T10:22:15.838Z,4.73
2023-02-07T10:25:36.512Z,6.40
2023-02-07T10:28:59.441Z,6.82
2023-02-07T10:32:12.587Z,7.64
2023-02-07T10:35:19.696Z,8.23
2023-02-07T10:38:38.205Z,9.03
2023-02-07T10:41:45.049Z,8.55
2023-02-07T10:44:48.037Z,7.72
2023-02-07T10:47:50.214Z,7.16
2023-02-07T10:50:52.718Z,7.95
2023-02-07T10:54:07.740Z,9.09
2023-02-07T10:57:18.062Z,8.46
2023-02-07T11:00:28.792Z,9.22
2023-02-07T11:03:31.449Z,9.30
2023-02-07T11:06:34.471Z,13.15
2023-02-07T11:09:39.529Z,12.32
2023-02-07T11:12:58.965Z,13.36
2023-02-07T11:16:10.606Z,15.75
2023-02-07T11:19:22.838Z,17.81
2023-02-07T11:22:28.538Z,21.24
2023-02-07T11:25:35.841Z,22.63
2023-02-07T11:28:38.478Z,21.45
2023-02-07T11:31:42.750Z,18.91
2023-02-07T11:34:51.397Z,17.75
2023-02-07T11:38:22.927Z,21.14
2023-02-07T11:41:27.547Z,24.53
2023-02-07T11:44:30.997Z,24.84
2023-02-07T11:47:35.420Z,23.81
2023-02-07T11:50:40.988Z,23.66
2023-02-07T11:53:47.206Z,25.65
2023-02-07T11:56:53.636Z,26.19
2023-02-07T12:00:06.893Z,25.56
2023-02-07T12:03:27.569Z,22.96
2023-02-07T12:06:42.201Z,23.63
2023-02-07T12:09:59.314Z,23.59
2023-02-07T12:13:15.253Z,19.47
2023-02-07T12:16:26.457Z,18.04
2023-02-07T12:19:33.760Z,17.39
2023-02-07T12:22:59.284Z,14.63
2023-02-07T12:26:13.094Z,11.10
2023-02-07T12:29:37.349Z,7.31
2023-02-07T12:33:03.812Z,5.56
2023-02-07T12:36:20.348Z,4.56
2023-02-07T12:39:42.125Z,4.01
2023-02-07T12:42:57.358Z,3.65
2023-02-07T12:46:02.516Z,3.20
2023-02-07T12:49:33.715Z,3.18
2023-02-07T12:52:57.285Z,3.47
2023-02-07T12:56:23.355Z,3.29
2023-02-07T12:59:55.116Z,3.01
2023-02-07T13:03:34.442Z,2.95
2023-02-07T13:07:14.271Z,2.64
2023-02-07T13:10:52.003Z,2.46
2023-02-07T13:14:35.947Z,2.10
2023-02-07T13:17:40.924Z,2.36
2023-02-07T13:21:11.488Z,2.18
2023-02-07T13:24:17.079Z,2.39
2023-02-07T13:27:22.425Z,2.38
2023-02-07T13:30:28.026Z,2.24
2023-02-07T13:33:42.014Z,2.01
2023-02-07T13:36:49.219Z,2.04
2023-02-07T13:40:16.476Z,2.08
2023-02-07T13:43:25.228Z,1.91
2023-02-07T13:46:58.297Z,1.71
2023-02-07T13:50:21.699Z,1.66
2023-02-07T13:53:36.122Z,1.55
2023-02-07T13:56:57.340Z,1.51
2023-02-07T14:00:07.325Z,1.48
2023-02-07T14:03:35.313Z,1.49
2023-02-07T14:06:40.399Z,1.47
2023-02-07T14:09:48.897Z,1.46
2023-02-07T14:12:53.755Z,1.44
2023-02-07T14:16:09.972Z,1.57
2023-02-07T14:19:13.620Z,1.27
2023-02-07T14:22:15.860Z,1.10
2023-02-07T14:25:18.325Z,0.93
2023-02-07T14:28:31.753Z,0.89
2023-02-07T14:31:34.200Z,1.02
2023-02-07T14:35:25.671Z,0.93
2023-02-07T14:38:42.304Z,0.97
2023-02-07T14:41:46.505Z,1.10
2023-02-07T14:44:50.957Z,0.81
2023-02-07T14:47:53.340Z,0.74
2023-02-07T14:50:55.948Z,0.78
2023-02-07T14:54:06.415Z,0.72
2023-02-07T14:57:36.694Z,0.69
2023-02-07T15:00:50.218Z,0.52
2023-02-07T15:04:07.186Z,0.45
2023-02-07T15:07:17.002Z,0.51
2023-02-07T15:10:24.243Z,0.28
2023-02-07T15:13:43.336Z,0.15
2023-02-07T15:16:45.902Z,0.06
2023-02-07T15:19:48.296Z,0.00
2023-02-07T15:22:54.353Z,0.02
2023-02-07T15:25:58.246Z,0.02
2023-02-07T15:29:05.362Z,-0.02
2023-02-07T15:32:30.727Z,-0.20
2023-02-07T15:35:39.397Z,-0.37
2023-02-07T15:38:41.827Z,-0.52
2023-02-07T15:41:46.181Z,-0.51
2023-02-07T15:44:54.086Z,-0.74
2023-02-07T15:47:58.804Z,-0.82
2023-02-07T15:51:04.529Z,-0.73
2023-02-07T15:54:07.494Z,-0.79
2023-02-07T15:57:22.108Z,-0.91
2023-02-07T16:00:29.156Z,-0.85
2023-02-07T16:03:36.578Z,-1.07
2023-02-07T16:06:54.982Z,-1.33
2023-02-07T16:10:15.545Z,-1.43
2023-02-07T16:13:22.919Z,-1.40
2023-02-07T16:16:28.489Z,-1.49
2023-02-07T16:19:32.899Z,-1.58
2023-02-07T16:22:36.256Z,-1.61
2023-02-07T16:25:38.520Z,-1.65
2023-02-07T16:28:41.004Z,-1.64
2023-02-07T16:31:44.177Z,-1.69
2023-02-07T16:34:58.970Z,-1.80
2023-02-07T16:38:02.433Z,-1.95
2023-02-07T16:41:04.995Z,-2.01
2023-02-07T16:44:12.424Z,-2.03
